createdAt,value
2018-12-08T00:00:25.335Z,99945.51
2018-12-08T00:02:54.407Z,99948.57
2018-12-08T00:05:23.380Z,99949.66
2018-12-08T00:07:52.652Z,99954.72
2018-12-08T00:10:21.610Z,99953.45
2018-12-08T00:12:50.729Z,99950.66
2018-12-08T00:15:21.949Z,99952.13
2018-12-08T00:17:51.074Z,99955.08
2018-12-08T00:20:20.001Z,99952.41
2018-12-08T00:22:49.228Z,99957.27
2018-12-08T00:25:18.202Z,99960.33
2018-12-08T00:27:47.137Z,99961.53
2018-12-08T00:31:31.861Z,99957.03
2018-12-08T00:34:00.804Z,99972.81
2018-12-08T00:36:30.205Z,99975.59
2018-12-08T00:38:59.109Z,99971.20
2018-12-08T00:41:28.166Z,99973.70
2018-12-08T00:43:57.163Z,99975.70
2018-12-08T00:46:26.166Z,99976.88
2018-12-08T00:48:55.366Z,99980.23
2018-12-08T00:51:24.461Z,99981.74
2018-12-08T00:53:56.393Z,99971.23
2018-12-08T00:56:25.462Z,99973.94
2018-12-08T00:58:54.595Z,99968.22
2018-12-08T01:01:23.543Z,99977.80
2018-12-08T01:03:52.507Z,99977.56
2018-12-08T01:06:21.924Z,99989.72
2018-12-08T01:08:50.892Z,99983.15
2018-12-08T01:11:19.913Z,99983.06
2018-12-08T01:13:48.874Z,99983.08
2018-12-08T01:16:18.160Z,99986.00
2018-12-08T01:18:47.107Z,99980.34
2018-12-08T01:21:16.173Z,99988.36
2018-12-08T01:23:45.206Z,99983.39
2018-12-08T01:26:14.206Z,99986.86
2018-12-08T01:28:43.643Z,99986.09
2018-12-08T01:31:12.693Z,99987.54
2018-12-08T01:33:41.618Z,99985.66
2018-12-08T01:36:10.632Z,99992.28
2018-12-08T01:38:39.964Z,99983.70
2018-12-08T01:41:09.112Z,99981.13
2018-12-08T01:43:37.990Z,100001.31
2018-12-08T01:46:06.936Z,99975.28
2018-12-08T01:48:35.877Z,99986.77
2018-12-08T01:51:04.978Z,99981.70
2018-12-08T01:53:34.145Z,99988.03
2018-12-08T01:56:03.286Z,99986.47
2018-12-08T01:58:32.250Z,99984.67
2018-12-08T02:01:01.386Z,99988.09
2018-12-08T02:03:30.340Z,99993.80
2018-12-08T02:05:59.356Z,99982.88
2018-12-08T02:08:28.405Z,99982.98
2018-12-08T02:10:57.535Z,99984.30
2018-12-08T02:13:26.574Z,99983.23
2018-12-08T02:15:55.667Z,99986.49
2018-12-08T02:18:25.007Z,99979.72
2018-12-08T02:20:53.978Z,99975.56
2018-12-08T02:23:24.404Z,99981.55
2018-12-08T02:25:53.340Z,99981.08
2018-12-08T02:28:22.354Z,99980.98
2018-12-08T02:30:51.638Z,99978.88
2018-12-08T02:33:20.583Z,99984.94
2018-12-08T02:35:49.631Z,99984.51
2018-12-08T02:38:18.596Z,99978.30
2018-12-08T02:40:47.539Z,99981.78
2018-12-08T02:43:17.364Z,99982.24
2018-12-08T02:45:46.269Z,99980.70
2018-12-08T02:48:15.236Z,99983.39
2018-12-08T02:50:44.329Z,99986.52
2018-12-08T02:53:13.541Z,99979.09
2018-12-08T02:55:42.916Z,99982.12
2018-12-08T02:58:12.319Z,99980.28
2018-12-08T03:00:42.113Z,99978.18
2018-12-08T03:03:11.060Z,99967.70
2018-12-08T03:05:40.082Z,99977.97
2018-12-08T03:08:09.118Z,99977.72
2018-12-08T03:10:38.562Z,99971.16
2018-12-08T03:13:07.556Z,99969.33
2018-12-08T03:15:36.697Z,99975.90
2018-12-08T03:18:05.961Z,99972.22
2018-12-08T03:20:35.017Z,99956.88
2018-12-08T03:23:03.898Z,99949.91
2018-12-08T03:25:33.821Z,99958.91
2018-12-08T03:28:03.193Z,99949.43
2018-12-08T03:30:32.095Z,99945.11
2018-12-08T03:33:01.036Z,99944.39
2018-12-08T03:35:30.001Z,99939.89
2018-12-08T03:37:58.927Z,99934.56
2018-12-08T03:40:27.851Z,99954.53
2018-12-08T03:42:56.896Z,99938.16
2018-12-08T03:45:25.858Z,99936.45
2018-12-08T03:47:55.162Z,99944.12
2018-12-08T03:50:24.112Z,99934.41
2018-12-08T03:52:53.346Z,99930.11
2018-12-08T03:55:22.408Z,99929.92
2018-12-08T03:57:51.576Z,99919.41
2018-12-08T04:00:20.792Z,99926.37
2018-12-08T04:02:50.053Z,99923.67
2018-12-08T04:05:19.744Z,99923.67
2018-12-08T04:07:49.190Z,99920.55
2018-12-08T04:10:18.520Z,99917.25
2018-12-08T04:12:47.490Z,99909.72
2018-12-08T04:15:16.446Z,99913.42
2018-12-08T04:17:45.360Z,99910.20
2018-12-08T04:20:14.623Z,99911.67
2018-12-08T04:22:44.278Z,99908.38
2018-12-08T04:25:13.335Z,99892.47
2018-12-08T04:27:42.754Z,99900.20
2018-12-08T04:30:12.253Z,99903.86
2018-12-08T04:32:41.513Z,99894.05
2018-12-08T04:35:12.045Z,99889.79
2018-12-08T04:37:40.966Z,99880.43
2018-12-08T04:40:10.365Z,99887.00
2018-12-08T04:42:39.742Z,99895.42
2018-12-08T04:45:09.064Z,99878.87
2018-12-08T04:47:38.067Z,99882.02
2018-12-08T04:50:07.430Z,99883.94
2018-12-08T04:52:36.353Z,99882.09
2018-12-08T04:55:05.685Z,99886.32
2018-12-08T04:57:35.015Z,99881.69
2018-12-08T05:00:05.149Z,99887.11
2018-12-08T05:02:34.214Z,99879.95
2018-12-08T05:05:03.389Z,99877.47
2018-12-08T05:07:32.315Z,99875.70
2018-12-08T05:10:01.367Z,99882.17
2018-12-08T05:12:30.410Z,99867.37
2018-12-08T05:14:59.297Z,99865.06
2018-12-08T05:17:28.628Z,99862.14
2018-12-08T05:19:57.701Z,99847.43
2018-12-08T05:22:27.248Z,99857.80
2018-12-08T05:24:56.395Z,99858.03
2018-12-08T05:27:25.305Z,99849.30
2018-12-08T05:29:55.531Z,99846.89
2018-12-08T05:32:26.871Z,99842.88
2018-12-08T05:34:55.796Z,99848.25
2018-12-08T05:37:24.814Z,99844.61
2018-12-08T05:39:53.802Z,99839.88
2018-12-08T05:42:22.707Z,99834.19
2018-12-08T05:44:57.628Z,99830.25
2018-12-08T05:47:26.609Z,99836.38
2018-12-08T05:49:55.548Z,99836.98
2018-12-08T05:52:24.566Z,99825.77
2018-12-08T05:54:53.462Z,99831.69
2018-12-08T05:57:22.529Z,99828.05
2018-12-08T05:59:53.150Z,99825.27
2018-12-08T06:02:22.161Z,99831.33
2018-12-08T06:04:51.119Z,99820.12
2018-12-08T06:07:20.097Z,99824.41
2018-12-08T06:09:48.999Z,99822.76
2018-12-08T06:12:18.120Z,99831.70
2018-12-08T06:14:47.023Z,99824.91
2018-12-08T06:17:16.041Z,99824.19
2018-12-08T06:19:45.013Z,99819.06
2018-12-08T06:22:13.960Z,99818.39
2018-12-08T06:24:42.907Z,99814.83
2018-12-08T06:27:56.476Z,99819.03
2018-12-08T06:30:26.033Z,99813.99
2018-12-08T06:32:54.871Z,99823.70
2018-12-08T06:35:23.851Z,99821.84
2018-12-08T06:37:52.753Z,99816.98
2018-12-08T06:40:28.996Z,99809.13
2018-12-08T06:42:53.317Z,99807.12
2018-12-08T06:45:22.190Z,99811.69
2018-12-08T06:47:51.116Z,99811.91
2018-12-08T06:50:20.033Z,99805.06
2018-12-08T06:52:49.051Z,99817.05
2018-12-08T06:55:18.010Z,99798.61
2018-12-08T06:57:47.025Z,99800.43
2018-12-08T07:00:16.074Z,99796.56
2018-12-08T07:02:44.971Z,99789.28
2018-12-08T07:05:14.991Z,99782.13
2018-12-08T07:07:44.386Z,99794.20
2018-12-08T07:10:13.269Z,99779.84
2018-12-08T07:12:42.579Z,99776.64
2018-12-08T07:15:12.000Z,99780.87
2018-12-08T07:17:41.475Z,99788.72
2018-12-08T07:20:10.493Z,99792.92
2018-12-08T07:22:39.365Z,99787.79
2018-12-08T07:25:08.431Z,99792.05
2018-12-08T07:27:37.417Z,99785.84
2018-12-08T07:30:09.929Z,99774.42
2018-12-08T07:32:39.184Z,99773.30
2018-12-08T07:35:09.007Z,99755.66
2018-12-08T07:37:37.937Z,99772.01
2018-12-08T07:40:09.051Z,99775.12
2018-12-08T07:42:38.033Z,99769.42
2018-12-08T07:45:08.793Z,99775.84
2018-12-08T07:47:37.765Z,99774.78
2018-12-08T07:50:09.094Z,99777.33
2018-12-08T07:52:38.262Z,99759.27
2018-12-08T07:55:08.257Z,99759.92
2018-12-08T07:57:37.249Z,99760.62
2018-12-08T08:00:11.500Z,99760.80
2018-12-08T08:02:40.573Z,99763.87
2018-12-08T08:05:10.110Z,99768.33
2018-12-08T08:07:39.142Z,99765.42
2018-12-08T08:10:10.459Z,99766.05
2018-12-08T08:12:39.612Z,99764.98
2018-12-08T08:15:10.424Z,99744.77
2018-12-08T08:17:40.113Z,99750.70
2018-12-08T08:20:11.579Z,99750.07
2018-12-08T08:22:40.634Z,99742.23
2018-12-08T08:25:11.490Z,99740.31
2018-12-08T08:27:40.399Z,99737.11
2018-12-08T08:30:12.157Z,99736.30
2018-12-08T08:32:41.132Z,99729.59
2018-12-08T08:35:10.208Z,99725.52
2018-12-08T08:37:39.151Z,99727.94
2018-12-08T08:40:10.433Z,99723.67
2018-12-08T08:42:39.409Z,99719.80
2018-12-08T08:45:09.290Z,99720.59
2018-12-08T08:47:38.293Z,99716.45
2018-12-08T08:50:10.278Z,99707.28
2018-12-08T08:52:39.379Z,99708.95
2018-12-08T08:55:08.530Z,99713.37
2018-12-08T08:57:37.470Z,99706.52
2018-12-08T09:00:09.395Z,99696.44
2018-12-08T09:02:39.130Z,99692.09
2018-12-08T09:05:08.200Z,99695.73
2018-12-08T09:07:37.363Z,99687.41
2018-12-08T09:10:10.610Z,99691.91
2018-12-08T09:12:39.599Z,99684.09
2018-12-08T09:15:12.415Z,99685.38
2018-12-08T09:17:41.604Z,99686.60
2018-12-08T09:20:11.414Z,99690.61
2018-12-08T09:22:41.121Z,99691.09
2018-12-08T09:25:11.183Z,99690.19
2018-12-08T09:27:40.118Z,99679.95
2018-12-08T09:30:11.953Z,99683.02
2018-12-08T09:32:40.983Z,99688.87
2018-12-08T09:35:09.946Z,99687.12
2018-12-08T09:37:38.947Z,99682.85
2018-12-08T09:40:08.278Z,99674.05
2018-12-08T09:42:37.200Z,99677.20
2018-12-08T09:45:06.950Z,99671.45
2018-12-08T09:47:35.998Z,99670.19
2018-12-08T09:50:07.112Z,99664.39
2018-12-08T09:52:36.248Z,99668.09
2018-12-08T09:55:05.919Z,99659.02
2018-12-08T09:57:35.454Z,99657.03
2018-12-08T10:00:05.782Z,99655.54
2018-12-08T10:02:34.892Z,99641.13
2018-12-08T10:05:04.210Z,99648.64
2018-12-08T10:07:34.088Z,99636.02
2018-12-08T10:10:03.671Z,99651.56
2018-12-08T10:12:32.554Z,99630.86
2018-12-08T10:15:07.573Z,99632.64
2018-12-08T10:17:36.606Z,99644.12
2018-12-08T10:20:05.788Z,99643.94
2018-12-08T10:22:34.775Z,99646.46
2018-12-08T10:25:04.192Z,99645.89
2018-12-08T10:27:33.493Z,99647.12
2018-12-08T10:30:02.586Z,99637.75
2018-12-08T10:32:31.524Z,99636.30
2018-12-08T10:35:00.570Z,99627.41
2018-12-08T10:37:29.471Z,99623.65
2018-12-08T10:39:58.401Z,99612.27
2018-12-08T10:42:27.469Z,99604.42
2018-12-08T10:44:56.407Z,99596.18
2018-12-08T10:47:25.298Z,99607.66
2018-12-08T10:49:54.337Z,99599.83
2018-12-08T10:52:23.245Z,99591.59
2018-12-08T10:54:52.252Z,99591.78
2018-12-08T10:57:21.465Z,99596.73
2018-12-08T10:59:52.085Z,99587.43
2018-12-08T11:02:26.824Z,99593.78
2018-12-08T11:04:55.847Z,99597.44
2018-12-08T11:07:24.785Z,99590.47
2018-12-08T11:09:53.746Z,99588.73
2018-12-08T11:12:22.711Z,99589.76
2018-12-08T11:14:51.711Z,99582.55
2018-12-08T11:17:21.102Z,99584.28
2018-12-08T11:19:49.954Z,99580.40
2018-12-08T11:22:18.910Z,99583.63
2018-12-08T11:24:47.833Z,99592.77
2018-12-08T11:27:16.729Z,99579.98
2018-12-08T11:29:45.828Z,99567.66
2018-12-08T11:32:16.007Z,99574.36
2018-12-08T11:34:44.960Z,99567.09
2018-12-08T11:37:14.034Z,99576.81
2018-12-08T11:39:43.830Z,99563.73
2018-12-08T11:42:13.158Z,99572.64
2018-12-08T11:44:48.691Z,99558.08
2018-12-08T11:47:17.639Z,99565.47
2018-12-08T11:49:46.551Z,99564.88
2018-12-08T11:52:15.597Z,99565.77
2018-12-08T11:54:44.603Z,99557.05
2018-12-08T11:57:14.108Z,99562.41
2018-12-08T11:59:43.095Z,99562.61
2018-12-08T12:02:16.482Z,99558.98
2018-12-08T12:04:43.530Z,99554.88
2018-12-08T12:07:12.526Z,99546.06
2018-12-08T12:09:41.433Z,99558.41
2018-12-08T12:12:10.384Z,99554.08
2018-12-08T12:14:45.364Z,99550.22
2018-12-08T12:17:14.410Z,99545.39
2018-12-08T12:19:43.482Z,99553.99
2018-12-08T12:22:12.511Z,99551.16
2018-12-08T12:24:41.405Z,99545.59
2018-12-08T12:27:11.284Z,99560.38
2018-12-08T12:29:40.300Z,99557.75
2018-12-08T12:32:09.190Z,99557.84
2018-12-08T12:34:38.285Z,99562.14
2018-12-08T12:37:07.451Z,99553.42
2018-12-08T12:39:36.433Z,99567.78
2018-12-08T12:42:05.772Z,99560.22
2018-12-08T12:44:34.706Z,99553.92
2018-12-08T12:47:03.820Z,99550.72
2018-12-08T12:49:32.773Z,99554.45
2018-12-08T12:52:01.725Z,99554.94
2018-12-08T12:54:30.975Z,99556.83
2018-12-08T12:57:00.235Z,99558.37
2018-12-08T12:59:29.487Z,99553.09
2018-12-08T13:01:58.439Z,99565.94
2018-12-08T13:04:27.406Z,99553.50
2018-12-08T13:06:56.499Z,99554.52
2018-12-08T13:09:25.489Z,99554.30
2018-12-08T13:11:54.551Z,99562.67
2018-12-08T13:14:23.474Z,99553.89
2018-12-08T13:16:52.359Z,99558.30
2018-12-08T13:19:21.366Z,99554.06
2018-12-08T13:21:50.263Z,99547.39
2018-12-08T13:24:19.220Z,99558.30
2018-12-08T13:26:48.498Z,99551.50
2018-12-08T13:29:17.411Z,99567.85
2018-12-08T13:31:46.393Z,99550.38
2018-12-08T13:34:33.124Z,99559.34
2018-12-08T13:37:02.015Z,99561.52
2018-12-08T13:39:30.890Z,99550.84
2018-12-08T13:41:59.893Z,99567.34
2018-12-08T13:44:38.760Z,99558.98
2018-12-08T13:47:07.838Z,99556.59
2018-12-08T13:49:36.754Z,99564.38
2018-12-08T13:52:05.809Z,99565.38
2018-12-08T13:54:53.293Z,99556.94
2018-12-08T13:57:23.034Z,99567.58
2018-12-08T13:59:56.372Z,99566.56
2018-12-08T14:02:25.758Z,99571.00
2018-12-08T14:04:56.555Z,99557.84
2018-12-08T14:07:25.656Z,99562.33
2018-12-08T14:09:59.936Z,99563.70
2018-12-08T14:12:29.622Z,99569.07
2018-12-08T14:14:58.495Z,99554.91
2018-12-08T14:17:27.422Z,99575.30
2018-12-08T14:22:42.239Z,99566.19
2018-12-08T14:25:11.173Z,99564.23
2018-12-08T14:27:40.186Z,99536.84
2018-12-08T14:30:09.497Z,99557.91
2018-12-08T14:32:38.667Z,99553.98
2018-12-08T14:35:07.853Z,99561.92
2018-12-08T14:37:37.141Z,99560.59
2018-12-08T14:40:08.081Z,99556.14
2018-12-08T14:42:37.242Z,99572.05
2018-12-08T14:45:09.289Z,99567.99
2018-12-08T14:47:38.360Z,99570.75
2018-12-08T14:50:10.165Z,99555.38
2018-12-08T14:52:39.219Z,99568.63
2018-12-08T14:55:09.643Z,99570.49
2018-12-08T14:57:38.707Z,99564.64
2018-12-08T15:00:11.751Z,99559.23
2018-12-08T15:02:41.044Z,99562.14
2018-12-08T15:05:11.132Z,99572.58
2018-12-08T15:07:40.248Z,99579.76
2018-12-08T15:10:12.573Z,99589.05
2018-12-08T15:12:41.430Z,99571.72
2018-12-08T15:15:12.306Z,99577.73
2018-12-08T15:17:45.647Z,99582.63
2018-12-08T15:20:14.661Z,99585.09
2018-12-08T15:22:43.560Z,99584.91
2018-12-08T15:25:12.553Z,99580.00
2018-12-08T15:27:41.471Z,99582.34
2018-12-08T15:30:11.509Z,99592.23
2018-12-08T15:32:40.497Z,99589.86
2018-12-08T15:35:10.757Z,99596.47
2018-12-08T15:37:41.069Z,99589.25
2018-12-08T15:40:11.219Z,99591.26
2018-12-08T15:42:40.417Z,99587.81
2018-12-08T15:45:11.190Z,99579.41
2018-12-08T15:47:40.093Z,99577.48
2018-12-08T15:50:10.874Z,99586.16
2018-12-08T15:52:39.755Z,99580.72
2018-12-08T15:55:09.074Z,99587.33
2018-12-08T15:57:37.984Z,99587.18
2018-12-08T16:00:10.698Z,99577.97
2018-12-08T16:02:40.827Z,99569.73
2018-12-08T16:05:10.410Z,99578.88
2018-12-08T16:07:39.433Z,99581.75
2018-12-08T16:10:09.451Z,99586.45
2018-12-08T16:12:38.376Z,99572.42
2018-12-08T16:15:11.339Z,99565.97
2018-12-08T16:17:40.435Z,99570.80
2018-12-08T16:20:13.317Z,99569.97
2018-12-08T16:22:42.395Z,99571.88
2018-12-08T16:25:11.349Z,99567.14
2018-12-08T16:27:40.322Z,99583.81
2018-12-08T16:30:09.913Z,99570.61
2018-12-08T16:32:38.831Z,99573.73
2018-12-08T16:35:08.069Z,99574.69
2018-12-08T16:37:37.004Z,99584.94
2018-12-08T16:40:07.060Z,99577.40
2018-12-08T16:42:36.061Z,99582.09
2018-12-08T16:45:10.888Z,99583.63
2018-12-08T16:47:40.128Z,99580.49
2018-12-08T16:50:10.368Z,99587.06
2018-12-08T16:52:39.410Z,99579.13
2018-12-08T16:55:08.762Z,99578.45
2018-12-08T16:57:37.660Z,99594.64
2018-12-08T17:00:07.966Z,99582.83
2018-12-08T17:02:36.950Z,99579.51
2018-12-08T17:05:06.019Z,99585.47
2018-12-08T17:07:35.061Z,99573.92
2018-12-08T17:10:05.384Z,99573.77
2018-12-08T17:12:34.364Z,99576.95
2018-12-08T17:15:06.125Z,99574.60
2018-12-08T17:17:35.155Z,99573.64
2018-12-08T17:20:06.347Z,99565.12
2018-12-08T17:22:36.093Z,99561.23
2018-12-08T17:25:05.914Z,99555.50
2018-12-08T17:27:35.224Z,99543.80
2018-12-08T17:30:04.958Z,99542.55
2018-12-08T17:32:33.901Z,99525.20
2018-12-08T17:35:03.152Z,99540.38
2018-12-08T17:37:32.361Z,99547.43
2018-12-08T17:40:01.397Z,99539.31
2018-12-08T17:42:30.438Z,99536.03
2018-12-08T17:45:01.209Z,99525.27
2018-12-08T17:47:30.154Z,99529.58
2018-12-08T17:49:59.060Z,99525.88
2018-12-08T17:52:28.016Z,99522.97
2018-12-08T17:54:57.079Z,99523.23
2018-12-08T17:57:26.050Z,99510.63
2018-12-08T17:59:54.926Z,99503.83
2018-12-08T18:02:24.022Z,99508.72
2018-12-08T18:04:53.441Z,99502.81
2018-12-08T18:07:25.116Z,99492.36
2018-12-08T18:09:54.427Z,99507.05
2018-12-08T18:12:23.745Z,99488.44
2018-12-08T18:14:52.617Z,99493.08
2018-12-08T18:17:21.785Z,99484.27
2018-12-08T18:19:50.750Z,99482.83
2018-12-08T18:22:19.936Z,99474.98
2018-12-08T18:24:49.081Z,99470.12
2018-12-08T18:27:18.011Z,99476.38
2018-12-08T18:29:47.019Z,99474.48
2018-12-08T18:32:15.998Z,99467.47
2018-12-08T18:37:12.138Z,99467.35
2018-12-08T18:39:41.303Z,99461.25
2018-12-08T18:42:10.908Z,99457.23
2018-12-08T18:44:41.704Z,99452.56
2018-12-08T18:47:10.916Z,99439.02
2018-12-08T18:49:39.938Z,99441.88
2018-12-08T18:52:08.978Z,99430.23
2018-12-08T18:54:38.207Z,99426.16
2018-12-08T18:57:07.266Z,99419.00
2018-12-08T18:59:36.131Z,99422.05
2018-12-08T19:02:05.137Z,99413.60
2018-12-08T19:04:34.095Z,99417.02
2018-12-08T19:07:03.377Z,99413.48
2018-12-08T19:09:32.338Z,99407.63
2018-12-08T19:12:01.275Z,99406.75
2018-12-08T19:14:30.258Z,99402.14
2018-12-08T19:16:59.256Z,99393.77
2018-12-08T19:19:29.902Z,99383.53
2018-12-08T19:21:58.992Z,99377.77
2018-12-08T19:24:28.351Z,99366.49
2018-12-08T19:26:57.240Z,99370.41
2018-12-08T19:29:26.800Z,99363.64
2018-12-08T19:31:56.239Z,99354.18
2018-12-08T19:34:26.090Z,99357.61
2018-12-08T19:36:55.250Z,99347.28
2018-12-08T19:39:24.625Z,99338.37
2018-12-08T19:41:54.890Z,99330.63
2018-12-08T19:44:24.429Z,99324.64
2018-12-08T19:46:53.551Z,99314.73
2018-12-08T19:49:23.796Z,99310.48
2018-12-08T19:51:53.460Z,99296.52
2018-12-08T19:54:24.386Z,99286.64
2018-12-08T19:56:54.091Z,99282.56
2018-12-08T19:59:23.460Z,99278.72
2018-12-08T20:01:53.144Z,99266.25
2018-12-08T20:04:23.096Z,99267.25
2018-12-08T20:06:52.213Z,99262.18
2018-12-08T20:09:21.308Z,99253.41
2018-12-08T20:11:50.724Z,99252.09
2018-12-08T20:14:20.006Z,99243.96
2018-12-08T20:16:49.489Z,99229.97
2018-12-08T20:19:18.696Z,99213.47
2018-12-08T20:21:48.143Z,99203.81
2018-12-08T20:24:17.320Z,99196.98
2018-12-08T20:26:47.234Z,99197.95
2018-12-08T20:29:17.120Z,99196.39
2018-12-08T20:31:46.431Z,99196.66
2018-12-08T20:34:15.480Z,99182.84
2018-12-08T20:36:44.495Z,99178.37
2018-12-08T20:39:13.756Z,99160.66
2018-12-08T20:41:42.690Z,99146.83
2018-12-08T20:44:11.683Z,99145.45
2018-12-08T20:46:41.224Z,99138.48
2018-12-08T20:49:10.219Z,99125.01
2018-12-08T20:51:39.615Z,99111.05
2018-12-08T20:54:08.657Z,99093.78
2018-12-08T20:56:37.856Z,99083.44
2018-12-08T20:59:07.506Z,99067.55
2018-12-08T21:01:36.806Z,99062.94
2018-12-08T21:04:05.789Z,99048.17
2018-12-08T21:06:34.982Z,99033.63
2018-12-08T21:09:05.507Z,99025.20
2018-12-08T21:11:35.222Z,99015.36
2018-12-08T21:14:04.386Z,98998.69
2018-12-08T21:16:33.404Z,98982.98
2018-12-08T21:19:03.398Z,98964.95
2018-12-08T21:21:32.662Z,98956.20
2018-12-08T21:24:01.841Z,98944.77
2018-12-08T21:26:30.855Z,98932.94
2018-12-08T21:28:59.768Z,98940.33
2018-12-08T21:31:28.662Z,98925.41
2018-12-08T21:33:57.598Z,98915.30
2018-12-08T21:36:26.551Z,98900.19
2018-12-08T21:38:55.603Z,98889.72
2018-12-08T21:41:24.535Z,98872.47
2018-12-08T21:43:53.451Z,98866.42
2018-12-08T21:46:22.607Z,98864.11
2018-12-08T21:48:51.707Z,98851.91
2018-12-08T21:51:21.185Z,98842.01
2018-12-08T21:53:50.131Z,98843.19
2018-12-08T21:56:20.081Z,98835.05
2018-12-08T21:58:48.969Z,98822.83
2018-12-08T22:01:18.090Z,98806.92
2018-12-08T22:03:47.120Z,98811.78
2018-12-08T22:06:16.038Z,98804.42
2018-12-08T22:08:45.135Z,98810.81
2018-12-08T22:11:15.504Z,98813.53
2018-12-08T22:13:44.383Z,98801.09
2018-12-08T22:16:13.396Z,98780.94
2018-12-08T22:18:42.601Z,98774.92
2018-12-08T22:21:11.503Z,98769.48
2018-12-08T22:23:40.515Z,98765.80
2018-12-08T22:26:10.247Z,98759.61
2018-12-08T22:28:39.638Z,98755.92
2018-12-08T22:31:08.666Z,98751.83
2018-12-08T22:33:37.500Z,98746.79
2018-12-08T22:36:06.449Z,98748.71
2018-12-08T22:38:35.700Z,98734.36
2018-12-08T22:41:05.015Z,98733.17
2018-12-08T22:43:33.879Z,98726.17
2018-12-08T22:46:02.860Z,98720.52
2018-12-08T22:48:33.811Z,98716.64
2018-12-08T22:51:03.052Z,98710.42
2018-12-08T22:53:32.345Z,98711.78
2018-12-08T22:56:01.333Z,98713.51
2018-12-08T22:58:30.883Z,98700.69
2018-12-08T23:01:01.985Z,98695.01
2018-12-08T23:03:31.305Z,98682.38
2018-12-08T23:06:00.777Z,98687.59
2018-12-08T23:08:29.899Z,98679.82
2018-12-08T23:11:01.468Z,98666.20
2018-12-08T23:13:31.561Z,98662.31
2018-12-08T23:16:00.528Z,98658.41
2018-12-08T23:18:36.088Z,98649.69
2018-12-08T23:21:05.061Z,98650.23
2018-12-08T23:23:33.942Z,98633.33
2018-12-08T23:26:03.311Z,98631.97
2018-12-08T23:28:32.503Z,98633.12
2018-12-08T23:31:01.401Z,98619.53
2018-12-08T23:33:30.378Z,98616.41
2018-12-08T23:35:59.389Z,98619.08
2018-12-08T23:38:28.353Z,98651.32
2018-12-08T23:40:57.335Z,98658.31
2018-12-08T23:43:26.387Z,98646.45
2018-12-08T23:45:55.387Z,98638.14
2018-12-08T23:48:24.636Z,98621.62
2018-12-08T23:50:53.719Z,98636.23
2018-12-08T23:53:23.079Z,98646.35
2018-12-08T23:55:52.157Z,98661.10
2018-12-08T23:58:21.406Z,98656.49
